Albolote, Spain
Current Conditions -  °F | °C
As of 6:00 PM on Thursday 23 Oct 2014 (Local Time) from LEGA Reporting Station
Clear Clear  
Wind Chill: 77°   Ceiling: Unl
Heat Index: 77°   Visibility: 6mi
Dew Point: 36°   Wind: 3mph
Humidity: 22%   Direction: 330°NNW
Pressure: 30.12"   Gusts: NA
Location:  37.23°N, 3.66°W
Report Text: LEGA 231600Z 33003KT CAVOK 25/02 Q1020
Loading
Personal Weather Stations






























Interactive Weather Map
Tropical Storm Tracking
New forecast layout! Learn more

10-Day Weather Forecast

Advertisements
Track Severe Weather on mobile